createdAt,value
2022-11-22T00:00:48.316Z,66.21
2022-11-22T00:03:17.094Z,66.00
2022-11-22T00:05:43.711Z,65.41
2022-11-22T00:08:12.056Z,65.53
2022-11-22T00:10:41.126Z,65.59
2022-11-22T00:13:07.872Z,65.72
2022-11-22T00:15:34.781Z,66.50
2022-11-22T00:18:03.671Z,66.08
2022-11-22T00:20:33.024Z,67.02
2022-11-22T00:23:05.990Z,67.20
2022-11-22T00:25:32.964Z,67.60
2022-11-22T00:28:00.230Z,67.40
2022-11-22T00:30:26.828Z,67.52
2022-11-22T00:32:53.458Z,67.29
2022-11-22T00:35:20.494Z,67.64
2022-11-22T00:37:47.424Z,67.22
2022-11-22T00:40:17.220Z,68.21
2022-11-22T00:42:43.993Z,67.79
2022-11-22T00:45:10.950Z,67.78
2022-11-22T00:47:40.697Z,68.17
2022-11-22T00:50:07.351Z,68.32
2022-11-22T00:52:33.955Z,68.98
2022-11-22T00:55:01.004Z,69.14
2022-11-22T00:57:27.900Z,68.81
2022-11-22T00:59:58.310Z,68.62
2022-11-22T01:02:24.985Z,68.56
2022-11-22T01:04:52.499Z,68.68
2022-11-22T01:07:19.243Z,68.25
2022-11-22T01:09:46.062Z,68.54
2022-11-22T01:12:12.928Z,68.67
2022-11-22T01:14:40.108Z,68.49
2022-11-22T01:17:07.227Z,67.80
2022-11-22T01:19:36.984Z,67.94
2022-11-22T01:22:03.522Z,67.70
2022-11-22T01:24:30.427Z,67.47
2022-11-22T01:26:57.411Z,67.59
2022-11-22T01:29:24.237Z,67.30
2022-11-22T01:31:51.164Z,66.51
2022-11-22T01:34:19.205Z,66.83
2022-11-22T01:36:48.517Z,66.72
2022-11-22T01:39:15.477Z,66.77
2022-11-22T01:41:42.505Z,67.12
2022-11-22T01:44:25.037Z,67.19
2022-11-22T01:47:02.903Z,67.67
2022-11-22T01:49:55.440Z,67.95
2022-11-22T01:52:25.712Z,67.78
2022-11-22T01:54:58.441Z,68.20
2022-11-22T01:57:30.380Z,67.60
2022-11-22T02:00:02.583Z,68.22
2022-11-22T02:02:33.702Z,67.89
2022-11-22T02:05:04.347Z,67.49
2022-11-22T02:07:43.478Z,67.87
2022-11-22T02:10:11.265Z,68.20
2022-11-22T02:12:39.015Z,68.09
2022-11-22T02:15:08.116Z,68.49
2022-11-22T02:17:34.761Z,68.84
2022-11-22T02:20:07.140Z,68.64
2022-11-22T02:22:44.338Z,68.37
2022-11-22T02:25:33.085Z,68.73
2022-11-22T02:28:00.120Z,68.72
2022-11-22T02:30:26.855Z,68.69
2022-11-22T02:32:53.689Z,68.31
2022-11-22T02:35:24.068Z,68.60
2022-11-22T02:38:03.007Z,68.26
2022-11-22T02:40:34.825Z,68.38
2022-11-22T02:43:37.138Z,68.58
2022-11-22T02:46:06.451Z,68.23
2022-11-22T02:48:33.641Z,68.69
2022-11-22T02:51:01.104Z,68.59
2022-11-22T02:53:30.704Z,67.79
2022-11-22T02:55:58.021Z,68.79
2022-11-22T02:58:24.567Z,68.68
2022-11-22T03:00:51.195Z,68.58
2022-11-22T03:03:17.890Z,68.53
2022-11-22T03:05:44.798Z,68.22
2022-11-22T03:08:11.453Z,67.92
2022-11-22T03:10:38.146Z,67.81
2022-11-22T03:13:04.672Z,68.54
2022-11-22T03:15:31.211Z,68.42
2022-11-22T03:18:01.616Z,68.15
2022-11-22T03:20:29.190Z,68.29
2022-11-22T03:22:58.799Z,68.15
2022-11-22T03:25:25.845Z,68.08
2022-11-22T03:27:52.602Z,68.40
2022-11-22T03:30:19.440Z,68.51
2022-11-22T03:32:46.036Z,68.69
2022-11-22T03:35:13.033Z,68.42
2022-11-22T03:37:39.759Z,68.64
2022-11-22T03:40:07.454Z,68.41
2022-11-22T03:42:34.282Z,68.73
2022-11-22T03:45:01.220Z,68.97
2022-11-22T03:47:28.128Z,69.34
2022-11-22T03:49:54.842Z,68.97
2022-11-22T03:52:21.508Z,69.64
2022-11-22T03:54:48.107Z,69.66
2022-11-22T03:57:16.998Z,69.51
2022-11-22T03:59:43.959Z,69.32
2022-11-22T04:02:12.735Z,69.50
2022-11-22T04:04:39.512Z,69.27
2022-11-22T04:07:06.802Z,68.62
2022-11-22T04:09:33.952Z,68.43
2022-11-22T04:12:00.800Z,68.52
2022-11-22T04:14:46.085Z,68.23
2022-11-22T04:17:14.090Z,68.47
2022-11-22T04:20:01.351Z,68.33
2022-11-22T04:22:29.822Z,68.46
2022-11-22T04:25:14.594Z,67.83
2022-11-22T04:27:41.329Z,67.60
2022-11-22T04:30:08.404Z,67.57
2022-11-22T04:32:47.416Z,67.32
2022-11-22T04:35:15.910Z,67.71
2022-11-22T04:37:43.366Z,68.03
2022-11-22T04:40:10.806Z,68.75
2022-11-22T04:43:03.658Z,68.48
2022-11-22T04:45:30.512Z,68.75
2022-11-22T04:48:00.296Z,68.83
2022-11-22T04:50:47.551Z,68.38
2022-11-22T04:53:15.585Z,68.37
2022-11-22T04:55:44.721Z,68.49
2022-11-22T04:58:12.054Z,68.44
2022-11-22T05:00:39.060Z,69.23
2022-11-22T05:03:06.463Z,69.17
2022-11-22T05:05:38.443Z,69.21
2022-11-22T05:08:07.072Z,69.37
2022-11-22T05:10:55.795Z,69.05
2022-11-22T05:13:37.569Z,69.18
2022-11-22T05:16:06.448Z,69.08
2022-11-22T05:18:33.435Z,69.09
2022-11-22T05:21:08.317Z,69.33
2022-11-22T05:23:56.427Z,68.49
2022-11-22T05:26:24.181Z,68.00
2022-11-22T05:28:51.094Z,67.70
2022-11-22T05:31:23.563Z,67.71
2022-11-22T05:33:52.410Z,67.11
2022-11-22T05:36:20.022Z,66.78
2022-11-22T05:38:47.047Z,67.14
2022-11-22T05:41:15.562Z,66.62
2022-11-22T05:43:42.488Z,66.36
2022-11-22T05:46:10.498Z,65.71
2022-11-22T05:48:39.702Z,65.72
2022-11-22T05:51:07.739Z,66.24
2022-11-22T05:53:35.789Z,65.49
2022-11-22T05:56:10.561Z,65.71
2022-11-22T05:58:38.100Z,65.05
2022-11-22T06:01:09.058Z,64.84
2022-11-22T06:03:39.047Z,64.74
2022-11-22T06:06:07.173Z,64.84
2022-11-22T06:08:36.762Z,63.66
2022-11-22T06:11:14.433Z,63.25
2022-11-22T06:13:44.088Z,62.75
2022-11-22T06:16:11.639Z,62.66
2022-11-22T06:18:38.740Z,63.12
2022-11-22T06:21:10.566Z,63.53
2022-11-22T06:23:37.943Z,63.48
2022-11-22T06:26:10.880Z,63.56
2022-11-22T06:28:38.852Z,64.42
2022-11-22T06:31:12.298Z,64.80
2022-11-22T06:33:40.006Z,64.94
2022-11-22T06:36:12.098Z,64.92
2022-11-22T06:38:40.051Z,65.75
2022-11-22T06:41:12.200Z,65.44
2022-11-22T06:43:46.697Z,65.55
2022-11-22T06:46:15.699Z,64.98
2022-11-22T06:48:42.982Z,64.89
2022-11-22T06:51:12.120Z,64.79
2022-11-22T06:53:47.225Z,64.32
2022-11-22T06:56:23.577Z,63.90
2022-11-22T06:58:52.013Z,63.84
2022-11-22T07:01:24.199Z,62.75
2022-11-22T07:03:51.701Z,62.89
2022-11-22T07:06:19.485Z,62.96
2022-11-22T07:08:47.841Z,62.95
2022-11-22T07:11:20.574Z,63.14
2022-11-22T07:13:48.249Z,63.24
2022-11-22T07:16:17.512Z,63.48
2022-11-22T07:18:44.764Z,62.96
2022-11-22T07:21:15.417Z,62.83
2022-11-22T07:23:44.428Z,63.54
2022-11-22T07:26:11.712Z,62.36
2022-11-22T07:28:38.581Z,62.37
2022-11-22T07:31:08.090Z,62.39
2022-11-22T07:33:35.237Z,62.30
2022-11-22T07:36:10.312Z,62.17
2022-11-22T07:38:37.363Z,62.17
2022-11-22T07:41:04.357Z,61.37
2022-11-22T07:43:31.336Z,60.83
2022-11-22T07:46:02.784Z,60.66
2022-11-22T07:48:29.516Z,60.89
2022-11-22T07:50:56.147Z,61.11
2022-11-22T07:53:23.290Z,60.78
2022-11-22T07:55:50.224Z,60.85
2022-11-22T07:58:16.771Z,60.57
2022-11-22T08:00:43.390Z,60.74
2022-11-22T08:03:13.138Z,60.73
2022-11-22T08:05:42.260Z,61.26
2022-11-22T08:08:08.866Z,60.78
2022-11-22T08:10:35.483Z,60.31
2022-11-22T08:13:02.067Z,60.05
2022-11-22T08:15:28.859Z,59.85
2022-11-22T08:17:55.941Z,61.02
2022-11-22T08:20:23.027Z,60.28
2022-11-22T08:22:52.672Z,60.54
2022-11-22T08:25:19.614Z,60.27
2022-11-22T08:27:46.143Z,59.90
2022-11-22T08:30:15.576Z,58.79
2022-11-22T08:32:42.267Z,60.13
2022-11-22T08:35:09.773Z,59.68
2022-11-22T08:37:39.865Z,59.40
2022-11-22T08:40:07.488Z,59.71
2022-11-22T08:42:34.271Z,58.27
2022-11-22T08:45:00.996Z,58.00
2022-11-22T08:47:27.723Z,58.67
2022-11-22T08:49:54.758Z,58.74
2022-11-22T08:52:21.524Z,58.25
2022-11-22T08:54:48.389Z,57.39
2022-11-22T08:57:15.293Z,57.25
2022-11-22T08:59:42.102Z,56.83
2022-11-22T09:02:10.038Z,57.36
2022-11-22T09:04:36.746Z,56.80
2022-11-22T09:09:50.688Z,56.56
2022-11-22T09:12:17.906Z,56.53
2022-11-22T09:14:44.510Z,55.84
2022-11-22T09:17:17.325Z,55.97
2022-11-22T09:19:44.759Z,54.56
2022-11-22T09:22:11.528Z,55.44
2022-11-22T09:24:38.523Z,55.21
2022-11-22T09:27:05.856Z,55.73
2022-11-22T09:29:33.049Z,55.43
2022-11-22T09:31:59.996Z,55.89
2022-11-22T09:34:26.823Z,54.98
2022-11-22T09:36:56.940Z,54.71
2022-11-22T09:39:23.944Z,54.27
2022-11-22T09:41:59.466Z,54.13
2022-11-22T09:44:37.984Z,54.11
2022-11-22T09:47:29.601Z,53.23
2022-11-22T09:50:05.183Z,53.54
2022-11-22T09:52:38.698Z,53.53
2022-11-22T09:55:58.004Z,54.16
2022-11-22T09:58:40.391Z,53.32
2022-11-22T10:01:31.444Z,53.43
2022-11-22T10:04:03.102Z,53.67
2022-11-22T10:06:35.439Z,53.20
2022-11-22T10:09:11.906Z,54.03
2022-11-22T10:12:06.601Z,53.21
2022-11-22T10:15:10.912Z,53.04
2022-11-22T10:17:56.018Z,52.77
2022-11-22T10:20:26.427Z,52.46
2022-11-22T10:22:54.102Z,52.40
2022-11-22T10:25:40.698Z,52.40
2022-11-22T10:28:31.257Z,52.30
2022-11-22T10:31:12.080Z,52.05
2022-11-22T10:33:47.239Z,52.11
2022-11-22T10:36:26.638Z,53.22
2022-11-22T10:39:10.170Z,53.12
2022-11-22T10:41:58.857Z,52.89
2022-11-22T10:44:41.348Z,52.70
2022-11-22T10:47:14.135Z,52.76
2022-11-22T10:49:52.209Z,52.26
2022-11-22T10:52:32.458Z,52.32
2022-11-22T10:55:34.631Z,50.86
2022-11-22T10:58:13.367Z,51.78
2022-11-22T11:00:45.204Z,50.99
2022-11-22T11:03:34.222Z,51.48
2022-11-22T11:06:26.746Z,51.04
2022-11-22T11:12:04.147Z,50.46
2022-11-22T11:15:00.167Z,50.14
2022-11-22T11:17:31.736Z,50.04
2022-11-22T11:20:03.116Z,49.91
2022-11-22T11:23:06.351Z,50.04
2022-11-22T11:25:40.937Z,50.33
2022-11-22T11:28:12.894Z,49.88
2022-11-22T11:31:01.094Z,49.70
2022-11-22T11:33:38.155Z,49.62
2022-11-22T11:36:20.206Z,49.35
2022-11-22T11:38:46.837Z,49.51
2022-11-22T11:41:31.643Z,49.64
2022-11-22T11:44:03.256Z,49.87
2022-11-22T11:46:45.292Z,48.85
2022-11-22T11:49:18.451Z,48.87
2022-11-22T11:51:53.566Z,47.34
2022-11-22T11:54:25.839Z,47.83
2022-11-22T11:56:58.070Z,47.10
2022-11-22T11:59:50.252Z,46.64
2022-11-22T12:02:24.470Z,47.54
2022-11-22T12:04:51.163Z,47.81
2022-11-22T12:07:28.529Z,47.47
2022-11-22T12:09:55.963Z,47.20
2022-11-22T12:12:37.997Z,47.23
2022-11-22T12:15:29.199Z,47.61
2022-11-22T12:18:07.375Z,47.07
2022-11-22T12:21:07.517Z,47.41
2022-11-22T12:23:51.252Z,46.29
2022-11-22T12:26:19.024Z,46.38
2022-11-22T12:28:46.270Z,46.00
2022-11-22T12:31:39.727Z,45.62
2022-11-22T12:34:13.967Z,45.01
2022-11-22T12:36:54.506Z,45.46
2022-11-22T12:39:29.482Z,46.30
2022-11-22T12:42:23.189Z,46.13
2022-11-22T12:45:01.755Z,47.00
2022-11-22T12:47:38.715Z,47.25
2022-11-22T12:50:14.475Z,47.44
2022-11-22T12:52:47.547Z,47.35
2022-11-22T12:55:26.471Z,47.16
2022-11-22T12:57:59.385Z,46.99
2022-11-22T13:00:29.697Z,46.06
2022-11-22T13:02:59.468Z,46.28
2022-11-22T13:05:31.602Z,46.73
2022-11-22T13:08:13.501Z,46.61
2022-11-22T13:10:48.201Z,47.31
2022-11-22T13:13:38.871Z,47.53
2022-11-22T13:16:11.254Z,47.33
2022-11-22T13:18:44.007Z,47.45
2022-11-22T13:21:19.618Z,47.81
2022-11-22T13:24:08.075Z,48.07
2022-11-22T13:27:03.324Z,47.83
2022-11-22T13:29:33.393Z,47.80
2022-11-22T13:32:12.510Z,48.19
2022-11-22T13:34:41.116Z,48.10
2022-11-22T13:37:16.347Z,49.05
2022-11-22T13:39:47.068Z,49.15
2022-11-22T13:42:25.515Z,49.38
2022-11-22T13:45:07.964Z,49.39
2022-11-22T13:47:38.436Z,49.29
2022-11-22T13:50:44.328Z,49.58
2022-11-22T13:53:19.972Z,49.67
2022-11-22T13:55:47.107Z,49.89
2022-11-22T13:58:25.955Z,50.03
2022-11-22T14:00:56.991Z,49.85
2022-11-22T14:03:34.145Z,49.91
2022-11-22T14:06:14.302Z,50.26
2022-11-22T14:08:41.450Z,50.40
2022-11-22T14:11:26.307Z,50.29
2022-11-22T14:14:16.975Z,50.31
2022-11-22T14:16:57.607Z,50.25
2022-11-22T14:19:50.350Z,50.47
2022-11-22T14:22:19.231Z,50.99
2022-11-22T14:24:56.128Z,50.45
2022-11-22T14:27:48.732Z,50.81
2022-11-22T14:30:22.082Z,51.35
2022-11-22T14:32:49.871Z,51.45
2022-11-22T14:35:29.268Z,51.26
2022-11-22T14:38:28.427Z,51.84
2022-11-22T14:41:27.315Z,51.70
2022-11-22T14:43:58.045Z,52.00
2022-11-22T14:46:51.757Z,52.36
2022-11-22T14:49:43.239Z,53.00
2022-11-22T14:52:26.353Z,52.97
2022-11-22T14:54:57.405Z,53.52
2022-11-22T14:57:26.549Z,53.60
2022-11-22T15:00:15.278Z,53.35
2022-11-22T15:02:51.014Z,53.77
2022-11-22T15:09:14.763Z,54.27
2022-11-22T15:09:15.080Z,54.26
2022-11-22T15:11:33.911Z,54.54
2022-11-22T15:14:25.679Z,55.02
2022-11-22T15:59:45.240Z,60.50
2022-11-22T16:02:19.701Z,60.56
2022-11-22T16:06:04.545Z,61.82
2022-11-22T16:07:49.693Z,62.46
2022-11-22T16:10:37.228Z,62.93
2022-11-22T16:13:19.263Z,62.82
2022-11-22T16:16:03.010Z,64.12
2022-11-22T16:18:30.084Z,64.01
2022-11-22T16:21:04.040Z,64.96
2022-11-22T16:23:33.822Z,65.23
2022-11-22T16:26:13.633Z,65.24
2022-11-22T16:28:40.280Z,65.06
2022-11-22T16:31:18.995Z,65.20
2022-11-22T16:33:46.234Z,65.20
2022-11-22T16:36:14.788Z,65.39
2022-11-22T16:38:42.703Z,65.46
2022-11-22T16:41:25.718Z,65.62
2022-11-22T16:43:55.850Z,65.79
2022-11-22T16:46:22.863Z,65.39
2022-11-22T16:48:50.503Z,64.29
2022-11-22T16:51:25.240Z,64.67
2022-11-22T16:53:55.784Z,65.20
2022-11-22T16:56:27.652Z,65.68
2022-11-22T16:58:58.488Z,65.77
2022-11-22T17:01:31.062Z,65.93
2022-11-22T17:03:59.430Z,66.19
2022-11-22T17:06:28.588Z,66.09
2022-11-22T17:08:57.536Z,66.00
2022-11-22T17:11:26.913Z,66.74
2022-11-22T17:13:54.506Z,66.87
2022-11-22T17:16:21.435Z,67.26
2022-11-22T17:18:48.466Z,67.47
2022-11-22T17:21:18.080Z,67.26
2022-11-22T17:23:45.611Z,67.64
2022-11-22T17:26:12.314Z,67.56
2022-11-22T17:28:38.945Z,67.77
2022-11-22T17:31:13.721Z,67.77
2022-11-22T17:33:40.709Z,68.11
2022-11-22T17:36:21.068Z,68.38
2022-11-22T17:38:48.001Z,68.82
2022-11-22T17:41:14.657Z,68.73
2022-11-22T17:43:41.486Z,68.21
2022-11-22T17:46:08.239Z,67.68
2022-11-22T17:48:35.031Z,67.87
2022-11-22T17:51:11.558Z,68.43
2022-11-22T17:53:39.195Z,68.47
2022-11-22T17:56:11.250Z,68.54
2022-11-22T17:58:39.493Z,68.46
2022-11-22T18:01:09.153Z,67.67
2022-11-22T18:03:36.141Z,68.01
2022-11-22T18:06:03.282Z,68.03
2022-11-22T18:08:30.588Z,68.65
2022-11-22T18:10:59.705Z,69.08
2022-11-22T18:13:27.988Z,69.32
2022-11-22T18:16:01.648Z,69.09
2022-11-22T18:18:54.982Z,69.28
2022-11-22T18:21:17.665Z,69.73
2022-11-22T18:23:45.294Z,69.68
2022-11-22T18:29:32.370Z,69.42
2022-11-22T18:31:54.353Z,69.58
2022-11-22T18:34:24.778Z,70.08
2022-11-22T18:37:07.526Z,69.67
2022-11-22T18:39:39.381Z,69.80
2022-11-22T18:42:13.411Z,69.82
2022-11-22T18:44:40.010Z,69.36
2022-11-22T18:47:07.442Z,70.32
2022-11-22T18:49:35.110Z,70.08
2022-11-22T18:52:02.063Z,69.74
2022-11-22T18:54:28.885Z,70.21
2022-11-22T18:56:55.715Z,70.14
2022-11-22T18:59:22.299Z,70.19
2022-11-22T19:01:48.971Z,70.54
2022-11-22T19:04:15.972Z,70.01
2022-11-22T19:06:43.608Z,69.89
2022-11-22T19:09:11.116Z,70.05
2022-11-22T19:11:40.793Z,69.64
2022-11-22T19:14:07.706Z,69.85
2022-11-22T19:16:34.765Z,69.56
2022-11-22T19:19:01.666Z,69.82
2022-11-22T19:21:29.886Z,69.53
2022-11-22T19:23:57.439Z,69.65
2022-11-22T19:26:26.032Z,69.44
2022-11-22T19:28:56.287Z,69.30
2022-11-22T19:31:29.470Z,69.80
2022-11-22T19:33:56.627Z,69.32
2022-11-22T19:36:30.829Z,69.79
2022-11-22T19:39:00.184Z,70.08
2022-11-22T19:41:27.078Z,70.09
2022-11-22T19:43:55.498Z,70.22
2022-11-22T19:46:22.171Z,70.11
2022-11-22T19:48:53.820Z,70.04
2022-11-22T19:51:21.448Z,69.64
2022-11-22T19:53:48.261Z,69.36
2022-11-22T19:56:17.673Z,70.16
2022-11-22T19:58:49.719Z,69.48
2022-11-22T20:01:16.773Z,69.33
2022-11-22T20:03:44.471Z,69.40
2022-11-22T20:06:13.926Z,69.50
2022-11-22T20:08:41.123Z,69.92
2022-11-22T20:11:11.549Z,69.68
2022-11-22T20:13:40.171Z,69.18
2022-11-22T20:16:16.545Z,68.98
2022-11-22T20:18:43.281Z,68.96
2022-11-22T20:21:10.959Z,69.56
2022-11-22T20:23:38.375Z,69.47
2022-11-22T20:26:10.190Z,69.70
2022-11-22T20:28:38.293Z,69.45
2022-11-22T20:31:06.214Z,69.99
2022-11-22T20:33:38.075Z,69.48
2022-11-22T20:36:06.766Z,69.87
2022-11-22T20:38:35.415Z,69.44
2022-11-22T20:41:02.106Z,69.56
2022-11-22T20:43:31.223Z,69.58
2022-11-22T20:46:01.662Z,69.44
2022-11-22T20:48:28.602Z,69.85
2022-11-22T20:50:55.253Z,68.72
2022-11-22T20:53:21.909Z,69.22
2022-11-22T20:55:48.561Z,69.74
2022-11-22T20:58:15.163Z,69.46
2022-11-22T21:00:41.806Z,69.45
2022-11-22T21:03:09.265Z,69.48
2022-11-22T21:05:36.415Z,69.99
2022-11-22T21:08:05.424Z,69.67
2022-11-22T21:10:32.658Z,70.23
2022-11-22T21:12:59.324Z,70.03
2022-11-22T21:15:25.988Z,70.23
2022-11-22T21:18:17.647Z,69.61
2022-11-22T21:20:42.095Z,70.34
2022-11-22T21:23:09.294Z,70.20
2022-11-22T21:25:39.916Z,70.28
2022-11-22T21:28:09.765Z,70.21
2022-11-22T21:30:36.832Z,70.11
2022-11-22T21:33:03.602Z,70.32
2022-11-22T21:35:30.210Z,69.46
2022-11-22T21:37:56.895Z,69.45
2022-11-22T21:40:23.536Z,69.27
2022-11-22T21:42:50.093Z,68.67
2022-11-22T21:45:16.803Z,68.73
2022-11-22T21:47:43.529Z,68.54
2022-11-22T21:50:11.935Z,68.68
2022-11-22T21:52:39.014Z,69.00
2022-11-22T21:55:06.228Z,68.48
2022-11-22T21:57:34.404Z,68.49
2022-11-22T22:00:01.153Z,68.38
2022-11-22T22:02:29.635Z,68.62
2022-11-22T22:04:56.825Z,68.33
2022-11-22T22:07:45.102Z,68.93
2022-11-22T22:10:12.454Z,69.08
2022-11-22T22:12:47.819Z,68.99
2022-11-22T22:15:14.512Z,68.25
2022-11-22T22:17:41.460Z,67.45
2022-11-22T22:20:08.546Z,67.40
2022-11-22T22:22:37.446Z,67.57
2022-11-22T22:25:06.123Z,67.42
2022-11-22T22:27:33.715Z,67.25
2022-11-22T22:30:00.764Z,67.68
2022-11-22T22:32:28.145Z,67.99
2022-11-22T22:34:58.058Z,67.84
2022-11-22T22:37:24.689Z,67.90
2022-11-22T22:39:51.877Z,67.70
2022-11-22T22:42:19.228Z,67.19
2022-11-22T22:44:47.554Z,67.10
2022-11-22T22:47:14.378Z,66.77
2022-11-22T22:49:40.963Z,66.39
2022-11-22T22:52:07.616Z,65.84
2022-11-22T22:54:35.884Z,65.99
2022-11-22T22:57:08.398Z,65.59
2022-11-22T22:59:35.307Z,66.74
2022-11-22T23:02:02.094Z,66.86
2022-11-22T23:04:28.967Z,67.01
2022-11-22T23:06:55.676Z,67.05
2022-11-22T23:09:22.554Z,67.52
2022-11-22T23:12:07.924Z,67.27
2022-11-22T23:14:34.542Z,67.41
2022-11-22T23:17:01.171Z,67.32
2022-11-22T23:19:27.939Z,67.57
2022-11-22T23:21:55.208Z,67.60
2022-11-22T23:24:22.132Z,67.80
2022-11-22T23:26:49.001Z,67.30
2022-11-22T23:29:15.593Z,66.35
2022-11-22T23:31:42.272Z,66.28
2022-11-22T23:34:11.024Z,66.07
2022-11-22T23:36:40.982Z,66.06
2022-11-22T23:39:08.563Z,65.69
2022-11-22T23:41:35.222Z,65.37
2022-11-22T23:44:01.933Z,65.75
2022-11-22T23:46:31.773Z,65.72
2022-11-22T23:49:00.480Z,64.94
2022-11-22T23:51:28.570Z,65.23
2022-11-22T23:53:56.895Z,64.75
2022-11-22T23:56:24.776Z,64.89
2022-11-22T23:58:51.948Z,64.97
